Flight Track Log - Related Links

Times and Time Zones

All times are in EDT time to prevent confusion due to time zone crossing. See the SWA3232 flight status page for this flight to view local times or setup timezone preferences in your user account.


Time Position Orientation Groundspeed Altitude Reporting Facility
EDT Latitude Longitude Course Direction KTS MPH feet Rate Location/Type
Fri 10:40:14 AM 41.8078 -87.6603 72° East 249 287 5,100  Level Chicago Center
Fri 10:41:16 AM 41.8075 -87.5589 90° East 260 299 6,000 871 Climbing Chicago Center
Fri 10:42:18 AM 41.7983 -87.4558 97° East 273 314 6,900 2,323 Climbing Chicago Center
Fri 10:43:20 AM 41.7872 -87.3483 98° East 287 330 10,800 3,339 Climbing Chicago Center
Fri 10:44:22 AM 41.7764 -87.2267 97° East 321 369 13,800 3,000 Climbing Chicago Center
Fri 10:45:24 AM 41.7639 -87.0919 97° East 357 411 17,000 3,024 Climbing Chicago Center
Fri 10:46:27 AM 41.7642 -86.9214 90° East 379 436 20,100 2,736 Climbing Chicago Center
Fri 10:47:29 AM 41.7639 -86.7694 90° East 401 461 22,700 2,565 Climbing Chicago Center
Fri 10:48:31 AM 41.7569 -86.5994 93° East 426 490 25,400 2,371 Climbing Chicago Center
Fri 10:49:33 AM 41.7497 -86.4342 93° East 442 509 27,600 1,984 Climbing Chicago Center
Fri 10:50:35 AM 41.7417 -86.2647 94° East 455 524 29,500 1,790 Climbing Chicago Center
Fri 10:51:37 AM 41.7347 -86.0919 93° East 464 534 31,300 1,742 Climbing Chicago Center
Fri 10:52:39 AM 41.7261 -85.9147 94° East 475 547 33,100 1,694 Climbing Chicago Center
Fri 10:53:41 AM 41.7175 -85.7364 94° East 478 550 34,800 1,355 Climbing Chicago Center
Fri 10:54:43 AM 41.7103 -85.5561 93° East 481 554 35,900 1,113 Climbing Chicago Center
Fri 10:55:45 AM 41.6967 -85.3542 95° East 486 559 37,100 1,306 Climbing Chicago Center
Fri 10:56:47 AM 41.6872 -85.1350 93° East 504 580 38,600 912 Climbing Chicago Center
Fri 10:57:50 AM 41.6764 -84.9522 94° East 495 570 39,000 192 Climbing Chicago Center
Fri 10:58:52 AM 41.6656 -84.7706 95° East 491 565 39,000  Level Chicago Center
Fri 10:59:54 AM 41.6581 -84.5858 93° East 497 572 39,000  Level Chicago Center
Fri 11:00:36 AM 41.6522 -84.4364 93° East 502 578 39,000  Level Cleveland Center
Fri 11:01:39 AM 41.6422 -84.2508 94° East 503 579 39,000  Level Cleveland Center
Fri 11:02:41 AM 41.6328 -84.0506 94° East 504 580 39,000  Level Cleveland Center
Fri 11:03:43 AM 41.6239 -83.8656 94° East 504 580 39,000  Level Cleveland Center
Fri 11:04:45 AM 41.6142 -83.6792 94° East 507 583 39,000  Level Cleveland Center
Fri 11:05:47 AM 41.6036 -83.4914 94° East 511 588 39,000  Level Cleveland Center
Fri 11:06:49 AM 41.5733 -83.3072 102° East 517 595 39,000  Level Cleveland Center
Fri 11:07:51 AM 41.4814 -83.1369 126° Southeast 528 608 39,000  Level Cleveland Center
Fri 11:08:53 AM 41.3806 -82.9531 126° Southeast 526 605 39,000  Level Cleveland Center
Fri 11:09:55 AM 41.2928 -82.7975 127° Southeast 523 602 39,000  Level Cleveland Center
Fri 11:10:57 AM 41.2047 -82.6433 127° Southeast 521 600 39,000  Level Cleveland Center
Fri 11:11:59 AM 41.1175 -82.4908 127° Southeast 518 596 39,000  Level Cleveland Center
Fri 11:13:01 AM 41.0308 -82.3364 127° Southeast 520 598 39,000  Level Cleveland Center
Fri 11:14:03 AM 40.9442 -82.1872 128° Southeast 513 590 39,000  Level Cleveland Center
Fri 11:15:05 AM 40.8450 -82.0133 127° Southeast 508 585 39,000  Level Cleveland Center
Fri 11:16:07 AM 40.7592 -81.8650 127° Southeast 507 583 39,000  Level Cleveland Center
Fri 11:17:09 AM 40.6733 -81.7186 128° Southeast 503 579 39,000  Level Cleveland Center
Fri 11:18:11 AM 40.5881 -81.5711 127° Southeast 504 580 39,000  Level Cleveland Center
Fri 11:19:13 AM 40.5022 -81.4256 128° Southeast 502 578 39,000  Level Cleveland Center
Fri 11:20:15 AM 40.4178 -81.2825 128° Southeast 503 579 39,000  Level Cleveland Center
Fri 11:21:17 AM 40.3331 -81.1375 127° Southeast 504 580 39,000  Level Cleveland Center
Fri 11:22:19 AM 40.2303 -80.9639 128° Southeast 508 585 39,000  Level Cleveland Center
Fri 11:23:21 AM 40.1533 -80.8103 123° Southeast 511 588 39,000  Level Cleveland Center
Fri 11:24:22 AM 40.0767 -80.6561 123° Southeast 514 592 39,000  Level Cleveland Center
Fri 11:25:24 AM 39.9983 -80.5022 124° Southeast 515 593 39,000  Level Cleveland Center
Fri 11:26:26 AM 39.9211 -80.3478 123° Southeast 515 593 39,000 -387 Level Cleveland Center
Fri 11:27:28 AM 39.8269 -80.1656 124° Southeast 514 592 38,200 -1,742 Descending Cleveland Center
Fri 11:28:30 AM 39.7481 -80.0111 124° Southeast 516 594 35,400 -2,927 Descending Cleveland Center
Fri 11:29:31 AM 39.6672 -79.8572 124° Southeast 519 597 32,200 -2,780 Descending Cleveland Center
Fri 11:30:33 AM 39.5869 -79.7017 124° Southeast 523 602 29,700 -2,419 Descending Cleveland Center
Fri 11:31:35 AM 39.5100 -79.5506 123° Southeast 509 586 27,200 -1,306 Descending Cleveland Center
Fri 11:32:37 AM 39.4725 -79.3867 106° East 483 556 27,000 -1,210 Descending Cleveland Center
Fri 11:33:39 AM 39.4364 -79.1931 104° East 467 537 24,700 -2,195 Descending Cleveland Center
Fri 11:34:40 AM 39.4092 -79.0378 103° East 450 518 22,500 -2,049 Descending Cleveland Center
Fri 11:35:42 AM 39.3833 -78.8922 103° East 429 494 20,500 -1,887 Descending Cleveland Center
Fri 11:36:44 AM 39.3592 -78.7544 103° East 404 465 18,600 -1,836 Descending Cleveland Center
Fri 11:37:56 AM 39.3303 -78.5994 104° East 380 437 16,400 -2,000 Descending Washington Center
Fri 11:38:56 AM 39.3061 -78.4750 104° East 365 420 14,200 -2,033 Descending Washington Center
Fri 11:39:57 AM 39.2819 -78.3589 105° East 353 406 12,300 -1,537 Descending Washington Center
Fri 11:40:57 AM 39.2297 -78.2603 124° Southeast 331 381 11,100 -942 Descending Washington Center
Fri 11:41:58 AM 39.1839 -78.1703 123° Southeast 319 367 10,400 -744 Descending Washington Center
Fri 11:42:58 AM 39.1378 -78.0883 126° Southeast 299 344 9,600 -923 Descending Washington Center
Fri 11:43:55 AM 39.0936 -78.0014 123° Southeast 293 337 8,600 -1,017 Descending Washington Center
Fri 11:44:56 AM 39.0472 -77.9169 125° Southeast 293 337 7,600 -992 Descending Washington Center
Fri 11:45:56 AM 39.0011 -77.8272 123° Southeast 287 330 6,600 -793 Descending Washington Center
Fri 11:46:57 AM 38.9650 -77.7514 121° Southeast 287 330 6,000 -298 Descending Washington Center
Fri 11:47:57 AM 38.9522 -77.6442 99° East 274 315 6,000  Level Washington Center
Fri 11:48:37 AM 38.9000 -77.6000 147° Southeast 280 322 6,000 -64 Level Potomac TRACON
Fri 11:49:31 AM 38.8500 -77.5667 153° Southeast 247 284 5,900 -600 Descending Potomac TRACON
Fri 11:50:37 AM 38.8167 -77.5000 123° Southeast 181 208 4,800 -1,400 Descending Potomac TRACON
Fri 11:51:31 AM 38.8333 -77.4667 57° Northeast 162 186 3,100 -1,617 Descending Potomac TRACON
Fri 11:52:32 AM 38.8667 -77.4667 360° North 136 157 1,700 -1,091 Descending Potomac TRACON
Fri 11:53:32 AM 38.9167 -77.4667 360° North 133 153 900 -800 Descending Potomac TRACON

Login

Don't have an account? Register now (free) for customized features, flight alerts, and more!